Wetterdaten: Woche 15.07.13 - 21.07.13 (KW29)
Datum Zeit Temp. Aussen +5cm Feuchte Auss Luftdruck Regen Sonnenschein Regendauer UV Solar Windben
15.07.2013 00:00 15,7 C 13,5 C 88 % 1022,5 hPa 0,0 l/m 0,00 h 0,00 h 0,0 UV-I 0 W/m 0,0 km/h (0 Bft)
15.07.2013 01:00 14,9 C 13,0 C 90 % 1022,2 hPa 0,0 l/m 0,00 h 0,00 h 0,0 UV-I 0 W/m 0,0 km/h (0 Bft)
15.07.2013 02:00 14,1 C 12,6 C 92 % 1022,2 hPa 0,0 l/m 0,00 h 0,00 h 0,0 UV-I 0 W/m 0,4 km/h (0 Bft)
15.07.2013 03:00 13,7 C 12,4 C 93 % 1022,0 hPa 0,0 l/m 0,00 h 0,00 h 0,0 UV-I 0 W/m 0,0 km/h (0 Bft)
15.07.2013 04:00 13,4 C 12,1 C 94 % 1021,9 hPa 0,0 l/m 0,00 h 0,00 h 0,0 UV-I 0 W/m 0,0 km/h (0 Bft)
15.07.2013 05:00 13,0 C 11,8 C 94 % 1021,9 hPa 0,0 l/m 0,00 h 0,00 h 0,0 UV-I 7 W/m 0,0 km/h (0 Bft)
15.07.2013 06:00 13,1 C 12,5 C 96 % 1022,0 hPa 0,0 l/m 0,00 h 0,00 h 0,0 UV-I 35 W/m 0,3 km/h (0 Bft)
15.07.2013 07:00 14,3 C 15,0 C 97 % 1022,4 hPa 0,0 l/m 0,00 h 0,00 h 0,0 UV-I 111 W/m 3,1 km/h (1 Bft)
15.07.2013 08:00 16,1 C 16,7 C 94 % 1022,5 hPa 0,0 l/m 0,57 h 0,00 h 0,5 UV-I 246 W/m 2,0 km/h (1 Bft)
15.07.2013 09:00 19,0 C 19,4 C 84 % 1022,6 hPa 0,0 l/m 0,70 h 0,00 h 1,0 UV-I 357 W/m 4,8 km/h (1 Bft)
15.07.2013 10:00 22,3 C 26,4 C 73 % 1022,4 hPa 0,0 l/m 0,87 h 0,00 h 2,1 UV-I 522 W/m 3,8 km/h (1 Bft)
15.07.2013 11:00 23,7 C 25,8 C 66 % 1022,5 hPa 0,0 l/m 0,63 h 0,00 h 2,7 UV-I 524 W/m 2,2 km/h (1 Bft)
15.07.2013 12:00 25,7 C 31,4 C 61 % 1022,4 hPa 0,0 l/m 0,83 h 0,00 h 3,8 UV-I 719 W/m 3,3 km/h (1 Bft)
15.07.2013 13:00 26,4 C 31,7 C 58 % 1022,1 hPa 0,0 l/m 0,77 h 0,00 h 3,1 UV-I 714 W/m 5,2 km/h (1 Bft)
15.07.2013 14:00 26,7 C 28,9 C 55 % 1021,9 hPa 0,0 l/m 0,53 h 0,00 h 3,5 UV-I 548 W/m 6,4 km/h (2 Bft)
15.07.2013 15:00 26,5 C 28,4 C 52 % 1021,7 hPa 0,0 l/m 0,33 h 0,00 h 2,6 UV-I 413 W/m 5,4 km/h (1 Bft)
15.07.2013 16:00 27,6 C 34,0 C 50 % 1021,4 hPa 0,0 l/m 0,87 h 0,00 h 2,8 UV-I 623 W/m 7,9 km/h (2 Bft)
15.07.2013 17:00 27,6 C 28,9 C 48 % 1021,3 hPa 0,0 l/m 0,90 h 0,00 h 1,7 UV-I 468 W/m 9,8 km/h (2 Bft)
15.07.2013 18:00 26,6 C 25,6 C 49 % 1021,4 hPa 0,0 l/m 0,47 h 0,00 h 0,9 UV-I 250 W/m 9,9 km/h (2 Bft)
15.07.2013 19:00 25,7 C 24,7 C 51 % 1021,4 hPa 0,0 l/m 0,00 h 0,00 h 0,0 UV-I 82 W/m 9,8 km/h (2 Bft)
15.07.2013 20:00 25,0 C 23,3 C 53 % 1021,5 hPa 0,0 l/m 0,00 h 0,00 h 0,0 UV-I 42 W/m 0,6 km/h (0 Bft)
15.07.2013 21:00 23,4 C 19,7 C 62 % 1021,7 hPa 0,0 l/m 0,00 h 0,00 h 0,0 UV-I 13 W/m 0,0 km/h (0 Bft)
15.07.2013 22:00 20,7 C 17,2 C 70 % 1022,1 hPa 0,0 l/m 0,00 h 0,00 h 0,0 UV-I 0 W/m 0,0 km/h (0 Bft)
15.07.2013 23:00 18,8 C 15,9 C 76 % 1022,4 hPa 0,0 l/m 0,00 h 0,00 h 0,0 UV-I 0 W/m 0,0 km/h (0 Bft)
16.07.2013 00:00 17,6 C 15,0 C 78 % 1022,5 hPa 0,0 l/m 0,00 h 0,00 h 0,0 UV-I 0 W/m 0,0 km/h (0 Bft)
16.07.2013 01:00 16,5 C 14,3 C 80 % 1022,6 hPa 0,0 l/m 0,00 h 0,00 h 0,0 UV-I 0 W/m 0,0 km/h (0 Bft)
16.07.2013 02:00 15,5 C 13,5 C 83 % 1022,7 hPa 0,0 l/m 0,00 h 0,00 h 0,0 UV-I 0 W/m 0,0 km/h (0 Bft)
16.07.2013 03:00 14,7 C 12,8 C 86 % 1022,4 hPa 0,0 l/m 0,00 h 0,00 h 0,0 UV-I 0 W/m 0,0 km/h (0 Bft)
16.07.2013 04:00 13,9 C 12,1 C 89 % 1022,3 hPa 0,0 l/m 0,00 h 0,00 h 0,0 UV-I 0 W/m 0,0 km/h (0 Bft)
16.07.2013 05:00 13,2 C 11,8 C 91 % 1022,3 hPa 0,0 l/m 0,00 h 0,00 h 0,0 UV-I 9 W/m 0,0 km/h (0 Bft)
16.07.2013 06:00 12,9 C 12,3 C 93 % 1022,6 hPa 0,0 l/m 0,00 h 0,00 h 0,0 UV-I 39 W/m 0,0 km/h (0 Bft)
16.07.2013 07:00 13,7 C 14,1 C 95 % 1022,9 hPa 0,0 l/m 0,00 h 0,00 h 0,0 UV-I 77 W/m 0,0 km/h (0 Bft)
16.07.2013 08:00 15,6 C 16,6 C 95 % 1023,0 hPa 0,0 l/m 0,87 h 0,00 h 0,6 UV-I 261 W/m 0,0 km/h (0 Bft)
16.07.2013 09:00 19,9 C 19,9 C 80 % 1023,2 hPa 0,0 l/m 0,97 h 0,00 h 1,1 UV-I 408 W/m 0,0 km/h (0 Bft)
16.07.2013 10:00 23,1 C 24,7 C 69 % 1023,1 hPa 0,0 l/m 0,97 h 0,00 h 2,1 UV-I 547 W/m 0,0 km/h (0 Bft)
16.07.2013 11:00 25,3 C 28,0 C 58 % 1022,8 hPa 0,0 l/m 0,97 h 0,00 h 3,2 UV-I 686 W/m 3,6 km/h (1 Bft)
16.07.2013 12:00 26,7 C 29,9 C 51 % 1022,7 hPa 0,0 l/m 0,97 h 0,00 h 3,8 UV-I 705 W/m 6,0 km/h (2 Bft)
16.07.2013 13:00 27,7 C 28,4 C 49 % 1022,5 hPa 0,0 l/m 0,97 h 0,00 h 2,9 UV-I 725 W/m 7,8 km/h (2 Bft)
16.07.2013 14:00 28,4 C 28,9 C 44 % 1022,2 hPa 0,0 l/m 0,97 h 0,00 h 4,2 UV-I 742 W/m 8,9 km/h (2 Bft)
16.07.2013 15:00 28,6 C 27,8 C 43 % 1022,0 hPa 0,0 l/m 0,97 h 0,00 h 3,7 UV-I 699 W/m 9,9 km/h (2 Bft)
16.07.2013 16:00 28,5 C 28,0 C 44 % 1021,9 hPa 0,0 l/m 0,97 h 0,00 h 2,7 UV-I 604 W/m 8,4 km/h (2 Bft)
16.07.2013 17:00 28,0 C 26,6 C 46 % 1021,7 hPa 0,0 l/m 0,97 h 0,00 h 1,7 UV-I 494 W/m 12,0 km/h (2 Bft)
16.07.2013 18:00 27,0 C 25,7 C 49 % 1021,4 hPa 0,0 l/m 0,50 h 0,00 h 0,8 UV-I 257 W/m 11,5 km/h (2 Bft)
16.07.2013 19:00 26,3 C 24,9 C 50 % 1021,5 hPa 0,0 l/m 0,00 h 0,00 h 0,0 UV-I 72 W/m 9,9 km/h (2 Bft)
16.07.2013 20:00 25,1 C 23,0 C 53 % 1021,7 hPa 0,0 l/m 0,00 h 0,00 h 0,0 UV-I 42 W/m 5,3 km/h (1 Bft)
16.07.2013 21:00 23,6 C 21,7 C 59 % 1021,9 hPa 0,0 l/m 0,00 h 0,00 h 0,0 UV-I 13 W/m 1,7 km/h (1 Bft)
16.07.2013 22:00 22,0 C 19,2 C 64 % 1022,2 hPa 0,0 l/m 0,00 h 0,00 h 0,0 UV-I 0 W/m 0,0 km/h (0 Bft)
16.07.2013 23:00 20,5 C 17,3 C 70 % 1022,4 hPa 0,0 l/m 0,00 h 0,00 h 0,0 UV-I 0 W/m 0,0 km/h (0 Bft)
17.07.2013 00:00 19,3 C 16,6 C 75 % 1022,4 hPa 0,0 l/m 0,00 h 0,00 h 0,0 UV-I 0 W/m 0,0 km/h (0 Bft)
17.07.2013 01:00 18,3 C 15,8 C 78 % 1022,6 hPa 0,0 l/m 0,00 h 0,00 h 0,0 UV-I 0 W/m 0,0 km/h (0 Bft)
17.07.2013 02:00 17,3 C 14,8 C 82 % 1022,7 hPa 0,0 l/m 0,00 h 0,00 h 0,0 UV-I 0 W/m 0,0 km/h (0 Bft)
17.07.2013 03:00 16,4 C 14,3 C 85 % 1022,7 hPa 0,0 l/m 0,00 h 0,00 h 0,0 UV-I 0 W/m 0,0 km/h (0 Bft)
17.07.2013 04:00 15,6 C 13,4 C 87 % 1022,6 hPa 0,0 l/m 0,00 h 0,00 h 0,0 UV-I 0 W/m 0,0 km/h (0 Bft)
17.07.2013 05:00 14,8 C 12,9 C 90 % 1022,6 hPa 0,0 l/m 0,00 h 0,00 h 0,0 UV-I 7 W/m 0,0 km/h (0 Bft)
17.07.2013 06:00 14,4 C 13,6 C 92 % 1022,9 hPa 0,0 l/m 0,00 h 0,00 h 0,0 UV-I 32 W/m 0,0 km/h (0 Bft)
17.07.2013 07:00 15,4 C 15,9 C 95 % 1023,0 hPa 0,0 l/m 0,00 h 0,00 h 0,0 UV-I 90 W/m 0,0 km/h (0 Bft)
17.07.2013 08:00 17,5 C 17,7 C 91 % 1023,3 hPa 0,0 l/m 0,20 h 0,00 h 0,5 UV-I 196 W/m 0,0 km/h (0 Bft)
17.07.2013 09:00 20,1 C 20,6 C 83 % 1023,5 hPa 0,0 l/m 0,63 h 0,00 h 1,1 UV-I 395 W/m 0,0 km/h (0 Bft)
17.07.2013 10:00 24,5 C 28,2 C 64 % 1023,4 hPa 0,0 l/m 0,80 h 0,00 h 2,2 UV-I 567 W/m 3,3 km/h (1 Bft)
17.07.2013 11:00 26,4 C 28,8 C 54 % 1023,2 hPa 0,0 l/m 0,97 h 0,00 h 3,0 UV-I 636 W/m 11,8 km/h (2 Bft)
17.07.2013 12:00 26,6 C 28,1 C 54 % 1023,0 hPa 0,0 l/m 0,83 h 0,00 h 3,0 UV-I 578 W/m 11,8 km/h (2 Bft)
17.07.2013 13:00 26,7 C 27,0 C 53 % 1022,8 hPa 0,0 l/m 0,47 h 0,00 h 2,5 UV-I 492 W/m 14,7 km/h (3 Bft)
17.07.2013 14:00 26,7 C 27,1 C 53 % 1022,7 hPa 0,0 l/m 0,30 h 0,00 h 2,4 UV-I 455 W/m 16,1 km/h (3 Bft)
17.07.2013 15:00 26,8 C 27,1 C 52 % 1022,6 hPa 0,0 l/m 0,50 h 0,00 h 2,3 UV-I 488 W/m 15,1 km/h (3 Bft)
17.07.2013 16:00 27,0 C 26,9 C 54 % 1022,4 hPa 0,0 l/m 0,33 h 0,00 h 1,6 UV-I 373 W/m 15,9 km/h (3 Bft)
17.07.2013 17:00 26,6 C 26,2 C 55 % 1022,2 hPa 0,0 l/m 0,70 h 0,00 h 1,1 UV-I 348 W/m 18,8 km/h (3 Bft)
17.07.2013 18:00 26,1 C 25,4 C 58 % 1022,1 hPa 0,0 l/m 0,00 h 0,00 h 0,5 UV-I 195 W/m 12,5 km/h (3 Bft)
17.07.2013 19:00 25,6 C 24,5 C 61 % 1022,1 hPa 0,0 l/m 0,00 h 0,00 h 0,0 UV-I 104 W/m 12,4 km/h (3 Bft)
17.07.2013 20:00 24,6 C 23,3 C 68 % 1022,2 hPa 0,0 l/m 0,00 h 0,00 h 0,0 UV-I 55 W/m 6,0 km/h (2 Bft)
17.07.2013 21:00 23,4 C 22,0 C 71 % 1022,5 hPa 0,0 l/m 0,03 h 0,00 h 0,0 UV-I 16 W/m 4,3 km/h (1 Bft)
17.07.2013 22:00 22,4 C 20,6 C 73 % 1022,8 hPa 0,0 l/m 0,00 h 0,00 h 0,0 UV-I 0 W/m 0,5 km/h (0 Bft)
17.07.2013 23:00 21,3 C 19,8 C 77 % 1023,0 hPa 0,0 l/m 0,00 h 0,00 h 0,0 UV-I 0 W/m 1,4 km/h (1 Bft)
18.07.2013 00:00 20,6 C 18,8 C 79 % 1023,2 hPa 0,0 l/m 0,00 h 0,00 h 0,0 UV-I 0 W/m 0,0 km/h (0 Bft)
18.07.2013 01:00 20,2 C 18,4 C 80 % 1023,2 hPa 0,0 l/m 0,00 h 0,00 h 0,0 UV-I 0 W/m 0,0 km/h (0 Bft)
18.07.2013 02:00 20,0 C 17,4 C 80 % 1023,2 hPa 0,0 l/m 0,00 h 0,00 h 0,0 UV-I 0 W/m 0,0 km/h (0 Bft)
18.07.2013 03:00 18,7 C 16,0 C 84 % 1023,3 hPa 0,0 l/m 0,00 h 0,00 h 0,0 UV-I 0 W/m 0,0 km/h (0 Bft)
18.07.2013 04:00 17,5 C 15,3 C 88 % 1023,2 hPa 0,0 l/m 0,00 h 0,00 h 0,0 UV-I 0 W/m 0,0 km/h (0 Bft)
18.07.2013 05:00 16,7 C 14,7 C 89 % 1023,3 hPa 0,0 l/m 0,00 h 0,00 h 0,0 UV-I 7 W/m 0,0 km/h (0 Bft)
18.07.2013 06:00 16,1 C 14,6 C 91 % 1023,5 hPa 0,0 l/m 0,00 h 0,00 h 0,0 UV-I 23 W/m 0,0 km/h (0 Bft)
18.07.2013 07:00 16,5 C 16,4 C 94 % 1023,7 hPa 0,0 l/m 0,00 h 0,00 h 0,0 UV-I 52 W/m 0,0 km/h (0 Bft)
18.07.2013 08:00 19,0 C 18,9 C 88 % 1023,8 hPa 0,0 l/m 0,90 h 0,00 h 0,6 UV-I 305 W/m 0,9 km/h (0 Bft)
18.07.2013 09:00 22,6 C 22,3 C 77 % 1023,9 hPa 0,0 l/m 0,97 h 0,00 h 1,2 UV-I 467 W/m 4,7 km/h (1 Bft)
18.07.2013 10:00 25,3 C 29,1 C 67 % 1023,7 hPa 0,0 l/m 0,97 h 0,00 h 2,3 UV-I 595 W/m 10,4 km/h (2 Bft)
18.07.2013 11:00 26,8 C 30,0 C 59 % 1023,5 hPa 0,0 l/m 0,97 h 0,00 h 3,4 UV-I 702 W/m 13,8 km/h (3 Bft)
18.07.2013 12:00 29,1 C 33,8 C 49 % 1023,3 hPa 0,0 l/m 0,97 h 0,00 h 4,5 UV-I 786 W/m 9,4 km/h (2 Bft)
18.07.2013 13:00 30,6 C 30,9 C 44 % 1023,3 hPa 0,0 l/m 0,97 h 0,00 h 2,6 UV-I 811 W/m 11,4 km/h (2 Bft)
18.07.2013 14:00 31,2 C 31,7 C 43 % 1023,0 hPa 0,0 l/m 0,97 h 0,00 h 4,6 UV-I 795 W/m 13,0 km/h (3 Bft)
18.07.2013 15:00 30,8 C 29,8 C 44 % 1022,7 hPa 0,0 l/m 0,97 h 0,00 h 3,8 UV-I 736 W/m 15,2 km/h (3 Bft)
18.07.2013 16:00 30,2 C 30,9 C 46 % 1022,3 hPa 0,0 l/m 0,90 h 0,00 h 2,6 UV-I 627 W/m 16,5 km/h (3 Bft)
18.07.2013 17:00 30,0 C 28,6 C 48 % 1022,0 hPa 0,0 l/m 0,97 h 0,00 h 1,7 UV-I 516 W/m 15,8 km/h (3 Bft)
18.07.2013 18:00 28,9 C 27,4 C 51 % 1021,9 hPa 0,0 l/m 0,53 h 0,00 h 0,9 UV-I 246 W/m 15,5 km/h (3 Bft)
18.07.2013 19:00 28,0 C 26,6 C 52 % 1021,8 hPa 0,0 l/m 0,00 h 0,00 h 0,0 UV-I 55 W/m 16,7 km/h (3 Bft)
18.07.2013 20:00 27,0 C 25,3 C 54 % 1021,8 hPa 0,0 l/m 0,00 h 0,00 h 0,0 UV-I 33 W/m 14,0 km/h (3 Bft)
18.07.2013 21:00 25,3 C 23,1 C 58 % 1022,1 hPa 0,0 l/m 0,00 h 0,00 h 0,0 UV-I 11 W/m 10,8 km/h (2 Bft)
18.07.2013 22:00 23,6 C 21,5 C 62 % 1022,7 hPa 0,0 l/m 0,00 h 0,00 h 0,0 UV-I 0 W/m 5,1 km/h (1 Bft)
18.07.2013 23:00 22,1 C 20,3 C 71 % 1023,0 hPa 0,0 l/m 0,00 h 0,00 h 0,0 UV-I 0 W/m 8,3 km/h (2 Bft)
19.07.2013 00:00 20,8 C 19,3 C 78 % 1023,3 hPa 0,0 l/m 0,00 h 0,00 h 0,0 UV-I 0 W/m 8,6 km/h (2 Bft)
19.07.2013 01:00 19,9 C 18,2 C 80 % 1023,6 hPa 0,0 l/m 0,00 h 0,00 h 0,0 UV-I 0 W/m 1,9 km/h (1 Bft)
19.07.2013 02:00 18,9 C 16,8 C 83 % 1023,5 hPa 0,0 l/m 0,00 h 0,00 h 0,0 UV-I 0 W/m 0,3 km/h (0 Bft)
19.07.2013 03:00 18,1 C 16,0 C 84 % 1023,4 hPa 0,0 l/m 0,00 h 0,00 h 0,0 UV-I 0 W/m 0,7 km/h (0 Bft)
19.07.2013 04:00 17,2 C 15,5 C 86 % 1023,3 hPa 0,0 l/m 0,00 h 0,00 h 0,0 UV-I 0 W/m 0,0 km/h (0 Bft)
19.07.2013 05:00 16,5 C 15,0 C 85 % 1023,2 hPa 0,0 l/m 0,00 h 0,00 h 0,0 UV-I 7 W/m 3,5 km/h (1 Bft)
19.07.2013 06:00 15,9 C 14,8 C 86 % 1023,4 hPa 0,0 l/m 0,00 h 0,00 h 0,0 UV-I 22 W/m 2,1 km/h (1 Bft)
19.07.2013 07:00 16,6 C 15,9 C 84 % 1023,5 hPa 0,0 l/m 0,00 h 0,00 h 0,0 UV-I 38 W/m 8,4 km/h (2 Bft)
19.07.2013 08:00 18,4 C 18,0 C 78 % 1023,7 hPa 0,0 l/m 0,90 h 0,00 h 0,6 UV-I 315 W/m 9,0 km/h (2 Bft)
19.07.2013 09:00 21,8 C 21,2 C 68 % 1023,7 hPa 0,0 l/m 0,97 h 0,00 h 1,2 UV-I 468 W/m 12,4 km/h (3 Bft)
19.07.2013 10:00 24,1 C 27,6 C 62 % 1023,7 hPa 0,0 l/m 0,97 h 0,00 h 2,4 UV-I 604 W/m 14,0 km/h (3 Bft)
19.07.2013 11:00 25,4 C 28,6 C 58 % 1023,7 hPa 0,0 l/m 0,97 h 0,00 h 3,6 UV-I 709 W/m 17,1 km/h (3 Bft)
19.07.2013 12:00 26,5 C 29,9 C 56 % 1023,5 hPa 0,0 l/m 0,97 h 0,00 h 4,4 UV-I 781 W/m 18,0 km/h (3 Bft)
19.07.2013 13:00 26,8 C 27,2 C 56 % 1023,0 hPa 0,0 l/m 0,73 h 0,00 h 2,7 UV-I 717 W/m 18,9 km/h (3 Bft)
19.07.2013 14:00 27,6 C 28,5 C 54 % 1022,7 hPa 0,0 l/m 0,77 h 0,00 h 3,8 UV-I 746 W/m 17,8 km/h (3 Bft)
19.07.2013 15:00 27,4 C 27,2 C 53 % 1022,5 hPa 0,0 l/m 0,60 h 0,00 h 3,1 UV-I 634 W/m 17,7 km/h (3 Bft)
19.07.2013 16:00 27,6 C 27,6 C 52 % 1022,1 hPa 0,0 l/m 0,70 h 0,00 h 2,6 UV-I 595 W/m 22,0 km/h (4 Bft)
19.07.2013 17:00 26,9 C 26,0 C 55 % 1021,8 hPa 0,0 l/m 0,83 h 0,00 h 1,7 UV-I 498 W/m 21,4 km/h (4 Bft)
19.07.2013 18:00 26,0 C 24,7 C 58 % 1021,4 hPa 0,0 l/m 0,35 h 0,00 h 0,7 UV-I 240 W/m 19,4 km/h (3 Bft)
19.07.2013 19:00 25,4 C 24,2 C 57 % 1021,2 hPa 0,0 l/m 0,00 h 0,00 h 0,0 UV-I 65 W/m 19,1 km/h (3 Bft)
19.07.2013 20:00 24,4 C 23,1 C 58 % 1021,2 hPa 0,0 l/m 0,00 h 0,00 h 0,0 UV-I 30 W/m 17,4 km/h (3 Bft)
19.07.2013 21:00 23,1 C 21,6 C 63 % 1021,4 hPa 0,0 l/m 0,00 h 0,00 h 0,0 UV-I 10 W/m 11,0 km/h (2 Bft)
19.07.2013 22:00 21,4 C 20,0 C 71 % 1022,1 hPa 0,0 l/m 0,00 h 0,00 h 0,0 UV-I 0 W/m 11,3 km/h (2 Bft)
19.07.2013 23:00 20,2 C 18,8 C 74 % 1022,2 hPa 0,0 l/m 0,00 h 0,00 h 0,0 UV-I 0 W/m 9,5 km/h (2 Bft)
20.07.2013 00:00 19,1 C 17,7 C 76 % 1022,3 hPa 0,0 l/m 0,00 h 0,00 h 0,0 UV-I 0 W/m 5,4 km/h (1 Bft)
20.07.2013 01:00 17,9 C 15,9 C 79 % 1022,3 hPa 0,0 l/m 0,00 h 0,00 h 0,0 UV-I 0 W/m 0,0 km/h (0 Bft)
20.07.2013 02:00 16,8 C 15,5 C 83 % 1022,0 hPa 0,0 l/m 0,00 h 0,00 h 0,0 UV-I 0 W/m 1,8 km/h (1 Bft)
20.07.2013 03:00 16,0 C 14,9 C 86 % 1022,0 hPa 0,0 l/m 0,00 h 0,00 h 0,0 UV-I 0 W/m 3,2 km/h (1 Bft)
20.07.2013 04:00 15,3 C 14,0 C 89 % 1021,9 hPa 0,0 l/m 0,00 h 0,00 h 0,0 UV-I 0 W/m 0,1 km/h (0 Bft)
20.07.2013 05:00 14,7 C 13,5 C 91 % 1021,7 hPa 0,0 l/m 0,00 h 0,00 h 0,0 UV-I 7 W/m 0,0 km/h (0 Bft)
20.07.2013 06:00 14,5 C 13,8 C 93 % 1021,7 hPa 0,0 l/m 0,00 h 0,00 h 0,0 UV-I 26 W/m 0,0 km/h (0 Bft)
20.07.2013 07:00 15,4 C 15,1 C 94 % 1021,7 hPa 0,0 l/m 0,00 h 0,00 h 0,0 UV-I 48 W/m 5,1 km/h (1 Bft)
20.07.2013 08:00 17,1 C 16,8 C 89 % 1021,6 hPa 0,0 l/m 0,33 h 0,00 h 0,0 UV-I 173 W/m 7,5 km/h (2 Bft)
20.07.2013 09:00 18,5 C 18,6 C 81 % 1021,7 hPa 0,0 l/m 0,07 h 0,00 h 0,6 UV-I 222 W/m 11,5 km/h (2 Bft)
20.07.2013 10:00 19,0 C 19,0 C 79 % 1021,9 hPa 0,0 l/m 0,00 h 0,00 h 0,6 UV-I 197 W/m 10,8 km/h (2 Bft)
20.07.2013 11:00 19,4 C 19,6 C 78 % 1022,2 hPa 0,0 l/m 0,00 h 0,00 h 0,7 UV-I 190 W/m 7,8 km/h (2 Bft)
20.07.2013 12:00 20,0 C 20,4 C 76 % 1022,0 hPa 0,0 l/m 0,00 h 0,00 h 1,3 UV-I 251 W/m 9,3 km/h (2 Bft)
20.07.2013 13:00 20,4 C 20,9 C 75 % 1021,7 hPa 0,0 l/m 0,00 h 0,00 h 1,3 UV-I 243 W/m 5,3 km/h (1 Bft)
20.07.2013 14:00 21,1 C 22,2 C 72 % 1021,4 hPa 0,0 l/m 0,00 h 0,00 h 2,1 UV-I 348 W/m 12,1 km/h (2 Bft)
20.07.2013 15:00 21,7 C 22,2 C 72 % 1021,2 hPa 0,0 l/m 0,00 h 0,00 h 1,6 UV-I 305 W/m 12,0 km/h (2 Bft)
20.07.2013 16:00 22,2 C 23,0 C 70 % 1021,0 hPa 0,0 l/m 0,33 h 0,00 h 1,8 UV-I 380 W/m 11,5 km/h (2 Bft)
20.07.2013 17:00 23,0 C 22,5 C 67 % 1020,6 hPa 0,0 l/m 0,70 h 0,00 h 1,5 UV-I 423 W/m 12,9 km/h (3 Bft)
20.07.2013 18:00 22,7 C 21,7 C 68 % 1020,2 hPa 0,0 l/m 0,53 h 0,00 h 0,8 UV-I 250 W/m 12,2 km/h (2 Bft)
20.07.2013 19:00 22,4 C 21,2 C 70 % 1019,9 hPa 0,0 l/m 0,00 h 0,00 h 0,0 UV-I 68 W/m 6,0 km/h (2 Bft)
20.07.2013 20:00 21,8 C 20,3 C 72 % 1019,8 hPa 0,0 l/m 0,00 h 0,00 h 0,0 UV-I 35 W/m 3,5 km/h (1 Bft)
20.07.2013 21:00 20,9 C 18,6 C 75 % 1020,0 hPa 0,0 l/m 0,00 h 0,00 h 0,0 UV-I 11 W/m 0,2 km/h (0 Bft)
20.07.2013 22:00 19,5 C 16,6 C 79 % 1020,2 hPa 0,0 l/m 0,00 h 0,00 h 0,0 UV-I 0 W/m 0,0 km/h (0 Bft)
20.07.2013 23:00 18,1 C 15,4 C 83 % 1020,4 hPa 0,0 l/m 0,00 h 0,00 h 0,0 UV-I 0 W/m 0,0 km/h (0 Bft)
21.07.2013 00:00 16,8 C 14,4 C 86 % 1020,5 hPa 0,0 l/m 0,00 h 0,00 h 0,0 UV-I 0 W/m 0,0 km/h (0 Bft)
21.07.2013 01:00 15,8 C 13,8 C 88 % 1020,4 hPa 0,0 l/m 0,00 h 0,00 h 0,0 UV-I 0 W/m 0,0 km/h (0 Bft)
21.07.2013 02:00 15,1 C 13,3 C 90 % 1020,4 hPa 0,0 l/m 0,00 h 0,00 h 0,0 UV-I 0 W/m 0,0 km/h (0 Bft)
21.07.2013 03:00 14,5 C 12,9 C 91 % 1020,3 hPa 0,0 l/m 0,00 h 0,00 h 0,0 UV-I 0 W/m 0,0 km/h (0 Bft)
21.07.2013 04:00 14,0 C 12,3 C 93 % 1020,2 hPa 0,0 l/m 0,00 h 0,00 h 0,0 UV-I 0 W/m 0,0 km/h (0 Bft)
21.07.2013 05:00 13,5 C 11,9 C 93 % 1019,9 hPa 0,0 l/m 0,00 h 0,00 h 0,0 UV-I 8 W/m 0,0 km/h (0 Bft)
21.07.2013 06:00 13,3 C 12,3 C 95 % 1019,8 hPa 0,0 l/m 0,00 h 0,00 h 0,0 UV-I 24 W/m 0,0 km/h (0 Bft)
21.07.2013 07:00 14,3 C 14,0 C 97 % 1019,9 hPa 0,0 l/m 0,00 h 0,00 h 0,0 UV-I 47 W/m 0,0 km/h (0 Bft)
21.07.2013 08:00 17,0 C 17,1 C 96 % 1020,0 hPa 0,0 l/m 0,87 h 0,00 h 0,6 UV-I 287 W/m 2,6 km/h (1 Bft)
21.07.2013 09:00 22,2 C 21,1 C 75 % 1020,0 hPa 0,0 l/m 0,97 h 0,00 h 1,3 UV-I 456 W/m 6,1 km/h (2 Bft)
21.07.2013 10:00 25,9 C 30,2 C 62 % 1019,8 hPa 0,0 l/m 0,97 h 0,00 h 2,5 UV-I 593 W/m 12,5 km/h (3 Bft)
21.07.2013 11:00 28,4 C 32,3 C 55 % 1019,4 hPa 0,0 l/m 0,97 h 0,00 h 3,7 UV-I 706 W/m 9,8 km/h (2 Bft)
21.07.2013 12:00 30,5 C 34,9 C 50 % 1019,2 hPa 0,0 l/m 0,97 h 0,00 h 4,6 UV-I 776 W/m 14,4 km/h (3 Bft)
21.07.2013 13:00 31,7 C 32,1 C 46 % 1019,0 hPa 0,0 l/m 0,97 h 0,00 h 2,8 UV-I 808 W/m 14,9 km/h (3 Bft)
21.07.2013 14:00 32,7 C 32,1 C 43 % 1018,6 hPa 0,0 l/m 0,98 h 0,00 h 4,7 UV-I 791 W/m 9,9 km/h (2 Bft)
21.07.2013 15:00 32,8 C 31,6 C 43 % 1018,2 hPa 0,0 l/m 0,93 h 0,00 h 4,0 UV-I 720 W/m 9,5 km/h (2 Bft)
21.07.2013 16:00 33,2 C 32,3 C 43 % 1017,8 hPa 0,0 l/m 0,97 h 0,00 h 3,1 UV-I 630 W/m 8,3 km/h (2 Bft)
21.07.2013 17:00 32,6 C 30,4 C 42 % 1017,6 hPa 0,0 l/m 0,97 h 0,00 h 2,1 UV-I 502 W/m 7,6 km/h (2 Bft)
21.07.2013 18:00 31,7 C 28,9 C 43 % 1017,2 hPa 0,0 l/m 0,47 h 0,00 h 1,1 UV-I 239 W/m 5,7 km/h (1 Bft)
21.07.2013 19:00 30,8 C 27,6 C 45 % 1017,0 hPa 0,0 l/m 0,00 h 0,00 h 0,5 UV-I 51 W/m 1,4 km/h (1 Bft)
21.07.2013 20:00 29,8 C 25,7 C 48 % 1016,9 hPa 0,0 l/m 0,00 h 0,00 h 0,0 UV-I 30 W/m 0,4 km/h (0 Bft)
21.07.2013 21:00 27,7 C 22,7 C 56 % 1016,9 hPa 0,0 l/m 0,00 h 0,00 h 0,0 UV-I 8 W/m 0,0 km/h (0 Bft)
21.07.2013 22:00 24,7 C 20,5 C 65 % 1017,1 hPa 0,0 l/m 0,00 h 0,00 h 0,0 UV-I 0 W/m 0,0 km/h (0 Bft)
21.07.2013 23:00 22,4 C 19,3 C 72 % 1017,2 hPa 0,0 l/m 0,00 h 0,00 h 0,0 UV-I 0 W/m 0,5 km/h (0 Bft)
Min-Datum _ 16.07.13 15.07.13 16.07.13 21.07.13 - - - - - 15.07.13
_ Min-Zeit 06:16 04:36 15:00 20:32 - - - - - 00:00
Minimum _ 12,8 C 11,8 C 41 % 1016,8 hPa - - - - - 0,0 km/h (0 Bft)
Max-Datum _ 21.07.13 15.07.13 21.07.13 18.07.13 15.07.13 15.07.13 15.07.13 19.07.13 19.07.13 19.07.13
_ Max-Zeit 16:26 16:22 07:38 08:58 00:00 08:02 00:00 14:06 13:44 13:46
Maximum _ 33,4 C 37,3 C 98 % 1023,9 hPa 0,0 l/m 0,03 h 0,00 h 5,1 UV-I 946 W/m 33,5 km/h
NW (5 Bft)
Durchschnitt _ 21,9 C 21,3 C 70 % 1021,9 hPa #0,0 l/m #54:06 h #0 min. 2,2 UV-I 338 W/m 6,0 km/h (2 Bft)
© 2013 W. Hausmann